• Join FlightAware (Why Join?)
  • Login
  • US Flag 
06:59AM EDT


 

Airport Tracker/Info


-or-


 

Live Flight TrackerFlight Track Log ✈ UAL4257 ✈ 28-Jul-2013 ✈ MMMY / MTY - KIAH

Flight Track Log - Related Links

Times and Time Zones

All times are in EDT time to prevent confusion due to time zone crossing. See the UAL4257 flight status page for this flight to view local times or setup timezone preferences in your user account.

Time Position Orientation Groundspeed Altitude Reporting Facility
EDT Latitude Longitude Course Direction KTS MPH feet Rate Location/Type
11:59AM 25.9216 -99.9118 42° Northeast  Level FlightAware Approximate
12:00PM 25.9739 -99.8499 52° Northeast  Level FlightAware Approximate
12:01PM 26.0215 -99.7832 52° Northeast  Level FlightAware Approximate
12:02PM 26.0711 -99.7181 49° Northeast  Level FlightAware Approximate
12:02PM 25.8747 -99.7289 47° Northeast 296 341 12,200  Level Houston Center
12:03PM 26.1213 -99.6536 49° Northeast  Level FlightAware Approximate
12:03PM 25.9411 -99.6594 43° Northeast 312 359 12,800  Level Houston Center
12:04PM 26.1725 -99.5902 47° Northeast  Level FlightAware Approximate
12:04PM 26.0122 -99.5803 45° Northeast 337 388 13,800  Level Houston Center
12:05PM 26.2251 -99.5281 47° Northeast  Level FlightAware Approximate
12:05PM 26.0842 -99.5008 45° Northeast 353 406 14,900  Level Houston Center
12:06PM 26.2777 -99.4659 47° Northeast  Level FlightAware Approximate
12:06PM 26.1572 -99.4192 45° Northeast 363 418 16,000  Level Houston Center
12:07PM 26.3302 -99.4037 47° Northeast  Level FlightAware Approximate
12:07PM 26.2464 -99.3217 44° Northeast 370 426 17,100  Level Houston Center
12:08PM 26.3211 -99.2361 46° Northeast 376 433 18,000 840 Climbing Houston Center
12:09PM 26.3972 -99.1522 45° Northeast 382 440 18,900 720 Climbing Houston Center
12:10PM 26.4797 -99.0736 40° Northeast 387 445 19,600 660 Climbing Houston Center
12:11PM 26.5653 -98.9964 39° Northeast 392 451 20,300 660 Climbing Houston Center
12:12PM 26.6519 -98.9167 39° Northeast 399 459 21,000 840 Climbing Houston Center
12:13PM 26.7567 -98.8225 39° Northeast 402 463 22,100 840 Climbing Houston Center
12:14PM 26.8431 -98.7428 39° Northeast 405 466 22,800 780 Climbing Houston Center
12:15PM 26.9294 -98.6622 40° Northeast 405 466 23,800 900 Climbing Houston Center
12:16PM 27.0158 -98.5828 39° Northeast 404 465 24,700 840 Climbing Houston Center
12:17PM 27.1006 -98.5028 40° Northeast 402 463 25,600 960 Climbing Houston Center
12:18PM 27.2036 -98.4078 39° Northeast 402 463 26,800 1,020 Climbing Houston Center
12:19PM 27.2889 -98.3278 40° Northeast 402 463 27,800 900 Climbing Houston Center
12:20PM 27.3747 -98.2483 39° Northeast 402 463 28,700 900 Climbing Houston Center
12:21PM 27.4597 -98.1675 40° Northeast 402 463 29,700 960 Climbing Houston Center
12:22PM 27.5456 -98.0881 39° Northeast 402 463 30,700 960 Climbing Houston Center
12:23PM 27.6481 -97.9922 40° Northeast 401 461 31,800 960 Climbing Houston Center
12:25PM 27.7339 -97.9122 40° Northeast 401 461 32,800 540 Climbing Houston Center
12:26PM 27.8208 -97.8289 40° Northeast 410 472 33,000 60 Climbing Houston Center
12:27PM 27.9142 -97.7433 39° Northeast 431 496 33,000  Level Houston Center
12:28PM 28.0233 -97.6381 40° Northeast 440 506 33,000  Level Houston Center
12:29PM 28.1189 -97.5489 39° Northeast 443 510 33,000  Level Houston Center
12:30PM 28.2119 -97.4597 40° Northeast 440 506 33,000  Level Houston Center
12:31PM 28.3061 -97.3697 40° Northeast 441 507 33,000  Level Houston Center
12:32PM 28.4008 -97.2803 40° Northeast 442 509 33,000  Level Houston Center
12:33PM 28.4953 -97.1897 40° Northeast 444 511 33,000  Level Houston Center
12:34PM 28.6081 -97.0811 40° Northeast 444 511 33,000 -240 Level Houston Center
12:35PM 28.7022 -96.9900 40° Northeast 444 511 32,600 -1,200 Descending Houston Center
12:36PM 28.7956 -96.9000 40° Northeast 443 510 30,600 -2,040 Descending Houston Center
12:37PM 28.8900 -96.8069 41° Northeast 448 516 28,400 -2,280 Descending Houston Center
12:38PM 28.9883 -96.7119 40° Northeast 460 529 26,000 -2,400 Descending Houston Center
12:39PM 29.0886 -96.6158 40° Northeast 472 543 23,500 -2,880 Descending Houston Center
12:39PM 29.1425 -96.5631 41° Northeast 454 522 21,600 -3,240 Descending Houston Center
12:40PM 29.1964 -96.5108 40° Northeast 437 503 20,200 -2,400 Descending Houston Center
12:41PM 29.2856 -96.4236 40° Northeast 428 493 17,900 -2,220 Descending Houston Center
12:42PM 29.3289 -96.3825 40° Northeast 419 482 16,900 -2,280 Descending Houston Center
12:43PM 29.4197 -96.2911 41° Northeast 397 457 14,500 -2,160 Descending Houston Center
12:43PM 29.4514 -96.2594 41° Northeast 391 450 13,600 -1,620 Descending Houston Center
12:44PM 29.5311 -96.1825 40° Northeast 380 437 12,000 -840 Descending Houston Center
12:45PM 29.5889 -96.0817 57° Northeast 316 364 11,900 -60 Descending Houston Center
12:46PM 29.6317 -95.9953 60° Northeast 312 359 11,900  Level Houston Center
12:47PM 29.6708 -95.9192 59° Northeast 307 353 11,900 -120 Level Houston Center
12:48PM 29.7092 -95.8422 60° Northeast 283 326 11,700 -960 Descending Houston Center
12:49PM 29.7539 -95.7536 60° Northeast 268 308 10,000 -1,500 Descending Houston Center
12:50PM 29.7900 -95.6806 60° Northeast 263 303 8,600 -1,140 Descending Houston Center
12:51PM 29.8256 -95.6108 60° Northeast 254 292 7,700 -960 Descending Houston Center
12:52PM 29.8578 -95.5450 61° Northeast 238 274 6,700 -840 Descending Houston Center
12:53PM 29.8892 -95.4822 60° Northeast 228 262 6,000 -360 Descending Houston Center
12:54PM 29.8964 -95.4133 83° East 224 258 6,000  Level Houston Center
12:56PM 29.8956 -95.3081 90° East 197 227 6,000  Level Houston Center
12:56PM 29.8969 -95.2653 88° East 202 232 6,100 -300 Climbing Houston Center
12:58PM 29.8975 -95.2022 89° East 197 227 5,500 -1,020 Descending Houston Center
12:59PM 29.9267 -95.1664 47° Northeast 194 223 4,100 -1,500 Descending Houston Center
01:00PM 29.9814 -95.1697 357° North 206 237 2,500 -1,080 Descending Houston Center
01:01PM 29.9942 -95.2236 285° West 187 215 1,900 -720 Descending Houston Center
01:02PM 29.9936 -95.2681 269° West 162 186 1,100 -840 Descending Houston Center
01:03PM 29.9939 -95.3203 270° West 144 166 200 -900 Descending Houston Center